Time;durP1;ratioP1;P1;durP2;ratioP2;P2;SDS_P1;SDS_P2;PMS_P1;PMS_P2;Temp;Humidity;BMP_temperature;BMP_pressure;BME280_temperature;BME280_humidity;BME280_pressure;Samples;Min_cycle;Max_cycle;Signal;HPM_P1;HPM_P2
2023/04/02 00:01:38;;;;;;;10.15;3.95;;;5.00;99.90;;;;;;4791127;30;20059;-66
2023/04/02 00:04:10;;;;;;;9.00;3.78;;;5.00;99.90;;;;;;4774546;30;20059;-67
2023/04/02 00:06:43;;;;;;;9.48;3.80;;;5.00;99.90;;;;;;4790623;30;20079;-67
2023/04/02 00:09:12;;;;;;;8.52;2.88;;;4.90;99.90;;;;;;4791069;30;20063;-66
2023/04/02 00:11:42;;;;;;;8.48;3.42;;;4.90;99.90;;;;;;4774584;30;20063;-66
2023/04/02 00:14:20;;;;;;;8.18;3.10;;;4.90;99.90;;;;;;4791211;30;20103;-67
2023/04/02 00:16:46;;;;;;;9.73;3.75;;;4.90;99.90;;;;;;4790259;30;20051;-66
2023/04/02 00:19:35;;;;;;;9.10;3.30;;;4.80;99.90;;;;;;4791065;30;20062;-66
2023/04/02 00:22:04;;;;;;;8.60;3.35;;;4.70;99.90;;;;;;4790583;30;20059;-67
2023/04/02 00:24:32;;;;;;;7.93;3.25;;;4.80;99.90;;;;;;4790838;30;20156;-66
2023/04/02 00:26:58;;;;;;;7.15;3.25;;;4.80;99.90;;;;;;4790251;30;20047;-66
2023/04/02 00:29:23;;;;;;;9.17;3.10;;;4.70;99.90;;;;;;4790092;30;20511;-66
2023/04/02 00:31:51;;;;;;;8.80;3.07;;;4.70;99.90;;;;;;4790114;30;20097;-66
2023/04/02 00:34:21;;;;;;;7.78;2.85;;;4.70;99.90;;;;;;4790455;30;20055;-66
2023/04/02 00:36:48;;;;;;;8.70;3.15;;;4.80;99.90;;;;;;4790196;30;20078;-66
2023/04/02 00:39:19;;;;;;;10.13;3.30;;;4.80;99.90;;;;;;4790185;30;20159;-66
2023/04/02 00:41:46;;;;;;;8.13;2.80;;;4.60;99.90;;;;;;4790431;30;20055;-66
2023/04/02 00:44:14;;;;;;;7.78;2.90;;;4.60;99.90;;;;;;4773594;30;20449;-66
2023/04/02 00:46:45;;;;;;;10.38;3.28;;;4.60;99.90;;;;;;4773721;30;20047;-67
2023/04/02 00:49:39;;;;;;;9.43;3.53;;;4.50;99.90;;;;;;4774242;30;20507;-67
2023/04/02 00:52:22;;;;;;;10.57;3.03;;;4.50;99.90;;;;;;4789461;29;20095;-67
2023/04/02 00:54:51;;;;;;;5.88;2.83;;;4.50;99.90;;;;;;4789735;30;20066;-67
2023/04/02 00:57:25;;;;;;;8.82;2.85;;;4.50;99.90;;;;;;4789587;29;20094;-67
2023/04/02 01:00:17;;;;;;;6.82;2.83;;;4.40;99.90;;;;;;4789677;30;20059;-66
2023/04/02 01:03:03;;;;;;;6.65;2.58;;;4.30;99.90;;;;;;4789624;30;20047;-66
2023/04/02 01:05:33;;;;;;;9.05;2.60;;;4.30;99.90;;;;;;4789885;30;20476;-66
2023/04/02 01:08:20;;;;;;;10.82;2.88;;;4.20;99.90;;;;;;4789977;30;20047;-66
2023/04/02 01:10:46;;;;;;;8.15;2.83;;;4.10;99.90;;;;;;4789960;30;20055;-66
2023/04/02 01:13:40;;;;;;;10.67;2.97;;;4.10;99.90;;;;;;4789831;30;20051;-66
2023/04/02 01:16:28;;;;;;;10.85;3.15;;;4.00;99.90;;;;;;4789722;30;20096;-67
2023/04/02 01:19:03;;;;;;;10.10;3.65;;;3.90;99.90;;;;;;4788843;30;20175;-66
2023/04/02 01:21:44;;;;;;;7.97;3.00;;;3.80;99.90;;;;;;4789240;30;20138;-66
2023/04/02 01:24:12;;;;;;;6.90;2.65;;;3.70;99.90;;;;;;4789203;30;20124;-66
2023/04/02 01:27:07;;;;;;;9.65;2.92;;;3.70;99.90;;;;;;4773093;30;20134;-66
2023/04/02 01:29:44;;;;;;;9.35;3.05;;;3.70;99.90;;;;;;4789450;30;20066;-67
2023/04/02 01:32:13;;;;;;;8.98;3.00;;;3.70;99.90;;;;;;4789062;30;20058;-67
2023/04/02 01:34:43;;;;;;;7.18;2.95;;;3.60;99.90;;;;;;4789522;30;20055;-66
2023/04/02 01:37:43;;;;;;;6.15;2.78;;;3.60;99.90;;;;;;4788983;30;20087;-67
2023/04/02 01:40:24;;;;;;;8.45;2.90;;;3.50;99.90;;;;;;4789020;30;20063;-68
2023/04/02 01:43:17;;;;;;;9.15;3.00;;;3.50;99.90;;;;;;4789500;30;20097;-66
2023/04/02 01:45:43;;;;;;;6.78;3.03;;;3.40;99.90;;;;;;4788922;30;20078;-66
2023/04/02 01:48:15;;;;;;;8.95;2.95;;;3.40;99.90;;;;;;4788777;30;20051;-69
2023/04/02 01:50:42;;;;;;;8.40;2.85;;;3.40;99.90;;;;;;4788708;30;20062;-67
2023/04/02 01:53:15;;;;;;;8.73;3.22;;;3.40;99.90;;;;;;4788703;30;20071;-67
2023/04/02 01:55:42;;;;;;;9.85;3.20;;;3.40;99.90;;;;;;4788706;30;20047;-67
2023/04/02 01:58:10;;;;;;;7.88;2.80;;;3.40;99.90;;;;;;4788727;30;20066;-67
2023/04/02 02:00:44;;;;;;;8.45;2.83;;;3.40;99.90;;;;;;4788642;30;20051;-67
2023/04/02 02:03:12;;;;;;;7.78;3.13;;;3.20;99.90;;;;;;4788789;29;20152;-66
2023/04/02 02:05:37;;;;;;;5.95;2.28;;;3.30;99.90;;;;;;4788223;30;20047;-67
2023/04/02 02:08:06;;;;;;;6.73;2.40;;;3.30;99.90;;;;;;4788578;30;20058;-67
2023/04/02 02:10:35;;;;;;;7.28;2.70;;;3.20;99.90;;;;;;4788770;30;20415;-67
2023/04/02 02:13:01;;;;;;;6.97;2.92;;;3.30;99.90;;;;;;4772415;30;20055;-66
2023/04/02 02:15:27;;;;;;;6.97;2.40;;;3.20;99.90;;;;;;4788316;30;20047;-67
2023/04/02 02:18:03;;;;;;;8.15;2.10;;;3.20;99.90;;;;;;4788388;30;20094;-66
2023/04/02 02:20:30;;;;;;;9.45;2.65;;;3.20;99.90;;;;;;4788918;30;20055;-66
2023/04/02 02:22:56;;;;;;;8.70;2.10;;;3.20;99.90;;;;;;4788465;29;20071;-66
2023/04/02 02:25:27;;;;;;;8.23;2.55;;;3.10;99.90;;;;;;4789051;30;20051;-67
2023/04/02 02:27:59;;;;;;;9.52;2.10;;;3.00;99.90;;;;;;4788912;30;20051;-66
2023/04/02 02:30:39;;;;;;;6.05;2.25;;;3.00;99.90;;;;;;4788313;30;20067;-67
2023/04/02 02:33:20;;;;;;;5.63;2.00;;;3.10;99.90;;;;;;4788596;30;20541;-66
2023/04/02 02:35:55;;;;;;;9.40;2.28;;;3.00;99.90;;;;;;4788221;30;20059;-66
2023/04/02 02:38:32;;;;;;;5.05;1.98;;;2.90;99.90;;;;;;4788329;30;20052;-67
2023/04/02 02:41:26;;;;;;;6.35;2.35;;;2.90;99.90;;;;;;4788530;30;20092;-66
2023/04/02 02:43:55;;;;;;;6.90;2.95;;;2.90;99.90;;;;;;4778350;30;20051;-66
2023/04/02 02:46:23;;;;;;;6.20;2.83;;;2.90;99.90;;;;;;4788148;30;20130;-66
2023/04/02 02:48:50;;;;;;;7.13;2.22;;;2.90;99.90;;;;;;4788160;30;20094;-66
2023/04/02 02:51:24;;;;;;;6.95;2.28;;;2.90;99.90;;;;;;4788390;30;20058;-70
2023/04/02 02:53:54;;;;;;;6.80;1.90;;;2.90;99.90;;;;;;4788173;30;20052;-66
2023/04/02 02:56:22;;;;;;;3.90;1.63;;;2.80;99.90;;;;;;4788805;30;20051;-67
2023/04/02 02:58:51;;;;;;;5.80;2.17;;;2.70;99.90;;;;;;4788089;30;20055;-66
2023/04/02 03:01:17;;;;;;;7.43;2.28;;;2.80;99.90;;;;;;4788817;30;20055;-66
2023/04/02 03:03:45;;;;;;;5.10;1.88;;;2.70;99.90;;;;;;4788104;30;20070;-66
2023/04/02 03:06:19;;;;;;;5.93;2.33;;;2.60;99.90;;;;;;4788027;30;20047;-66
2023/04/02 03:08:53;;;;;;;6.63;2.03;;;2.70;99.90;;;;;;4788028;30;20499;-66
2023/04/02 03:11:38;;;;;;;8.38;2.80;;;2.70;99.90;;;;;;4787726;30;20051;-70
2023/04/02 03:14:18;;;;;;;;;;;2.70;99.90;;;;;;4788464;30;20060;-66
2023/04/02 03:16:48;;;;;;;5.38;2.05;;;2.60;99.90;;;;;;4790840;29;19990;-66
2023/04/02 03:19:42;;;;;;;6.82;2.40;;;2.60;99.90;;;;;;4791694;30;20063;-66
2023/04/02 03:22:17;;;;;;;5.30;2.13;;;2.60;99.90;;;;;;4791343;30;20051;-66
2023/04/02 03:24:51;;;;;;;8.90;2.42;;;2.50;99.90;;;;;;4791065;30;20522;-67
2023/04/02 03:27:22;;;;;;;8.07;2.17;;;2.50;99.90;;;;;;4791271;30;20047;-67
2023/04/02 03:30:25;;;;;;;6.18;2.13;;;2.50;99.90;;;;;;4791213;30;20055;-67
2023/04/02 03:32:56;;;;;;;5.78;2.88;;;2.40;99.90;;;;;;4781913;30;20509;-67
2023/04/02 03:35:43;;;;;;;9.93;2.53;;;2.40;99.90;;;;;;4791803;30;20392;-71
2023/04/02 03:38:35;;;;;;;4.28;1.70;;;2.30;99.90;;;;;;4791560;30;20099;-67
2023/04/02 03:41:15;;;;;;;8.13;1.90;;;2.40;99.90;;;;;;4791116;30;20051;-66
2023/04/02 03:43:49;;;;;;;6.32;1.83;;;2.30;99.90;;;;;;4790788;29;20126;-67
2023/04/02 03:46:40;;;;;;;5.10;2.00;;;2.30;99.90;;;;;;4791033;30;20468;-67
2023/04/02 03:49:18;;;;;;;9.68;2.15;;;2.30;99.90;;;;;;4790885;30;20516;-67
2023/04/02 03:52:03;;;;;;;9.07;2.20;;;2.30;99.90;;;;;;4790895;30;20051;-67
2023/04/02 03:54:30;;;;;;;7.93;2.13;;;2.20;99.90;;;;;;4791365;30;20051;-67
2023/04/02 03:56:56;;;;;;;5.18;1.90;;;2.20;99.90;;;;;;4774816;30;20055;-67
2023/04/02 03:59:34;;;;;;;6.45;1.80;;;2.30;99.90;;;;;;4791177;29;20062;-67
2023/04/02 04:02:08;;;;;;;6.38;1.70;;;2.20;99.90;;;;;;4760786;30;20067;-67
2023/04/02 04:04:38;;;;;;;5.93;1.90;;;2.20;99.90;;;;;;4790395;30;20484;-67
2023/04/02 04:07:08;;;;;;;6.57;1.85;;;2.20;99.90;;;;;;4790592;30;20204;-67
2023/04/02 04:09:41;;;;;;;7.75;2.40;;;2.10;99.90;;;;;;4790531;30;20059;-67
2023/04/02 04:12:12;;;;;;;6.50;2.40;;;2.10;99.90;;;;;;4790501;30;20492;-67
2023/04/02 04:14:44;;;;;;;10.30;2.75;;;2.20;99.90;;;;;;4790568;30;20561;-66
2023/04/02 04:17:28;;;;;;;8.38;2.28;;;2.20;99.90;;;;;;4790369;30;20055;-66
2023/04/02 04:20:22;;;;;;;6.03;1.65;;;2.10;99.90;;;;;;4790684;30;20070;-66
2023/04/02 04:22:54;;;;;;;6.13;2.00;;;2.20;99.90;;;;;;4790301;30;20070;-66
2023/04/02 04:25:28;;;;;;;9.20;2.78;;;2.10;99.90;;;;;;4790715;30;20055;-66
2023/04/02 04:28:18;;;;;;;12.07;3.00;;;2.10;99.90;;;;;;4789255;29;20516;-66
2023/04/02 04:31:10;;;;;;;6.60;1.90;;;2.10;99.90;;;;;;4790113;30;20063;-66
2023/04/02 04:33:43;;;;;;;8.50;2.10;;;2.00;99.90;;;;;;4790084;30;20043;-66
2023/04/02 04:36:40;;;;;;;8.13;1.67;;;2.10;99.90;;;;;;4789762;30;20558;-66
2023/04/02 04:39:15;;;;;;;9.10;2.28;;;2.10;99.90;;;;;;4788747;30;20059;-66
2023/04/02 04:41:41;;;;;;;;;;;2.10;99.90;;;;;;4791041;30;20105;-66
2023/04/02 04:44:10;;;;;;;9.33;1.83;;;2.00;99.90;;;;;;4790608;30;20317;-66
2023/04/02 04:46:50;;;;;;;7.82;2.20;;;2.10;99.90;;;;;;4789616;29;20067;-66
2023/04/02 04:49:37;;;;;;;8.00;1.92;;;2.10;99.90;;;;;;4774201;30;20059;-66
2023/04/02 04:52:20;;;;;;;6.28;2.08;;;2.10;99.90;;;;;;4774284;30;20082;-66
2023/04/02 04:54:46;;;;;;;8.35;2.78;;;2.10;99.90;;;;;;4789774;30;20136;-66
2023/04/02 04:57:28;;;;;;;6.63;2.65;;;2.10;99.90;;;;;;4790440;29;20058;-67
2023/04/02 05:00:06;;;;;;;8.38;2.47;;;2.00;99.90;;;;;;4789738;30;20186;-66
2023/04/02 05:02:45;;;;;;;12.23;2.38;;;2.00;99.90;;;;;;4789688;29;20063;-68
2023/04/02 05:05:23;;;;;;;7.25;2.00;;;2.00;99.90;;;;;;4790081;30;20059;-66
2023/04/02 05:07:58;;;;;;;7.05;1.90;;;2.00;99.90;;;;;;4790011;30;20060;-66
2023/04/02 05:10:45;;;;;;;8.35;2.13;;;2.00;99.90;;;;;;4790102;30;20533;-66
2023/04/02 05:13:30;;;;;;;8.25;2.10;;;2.00;99.90;;;;;;4789504;30;20055;-67
2023/04/02 05:16:25;;;;;;;5.03;1.88;;;2.00;99.90;;;;;;4789585;30;20055;-66
2023/04/02 05:19:06;;;;;;;7.13;2.88;;;2.00;99.90;;;;;;4789593;30;20400;-66
2023/04/02 05:21:48;;;;;;;5.75;1.60;;;2.00;99.90;;;;;;4789095;30;20500;-66
2023/04/02 05:24:27;;;;;;;6.25;1.70;;;2.00;99.90;;;;;;4790114;30;20130;-66
2023/04/02 05:27:00;;;;;;;4.97;2.03;;;2.10;99.90;;;;;;4789248;30;20050;-66
2023/04/02 05:29:37;;;;;;;8.07;1.75;;;2.10;99.90;;;;;;4789980;30;20059;-66
2023/04/02 05:32:18;;;;;;;8.60;2.00;;;2.10;99.90;;;;;;4789559;30;20059;-67
2023/04/02 05:34:48;;;;;;;8.63;1.92;;;2.10;99.90;;;;;;4789867;30;20116;-67
2023/04/02 05:37:21;;;;;;;6.45;1.80;;;2.10;99.90;;;;;;4789377;30;20080;-66
2023/04/02 05:39:54;;;;;;;6.10;2.08;;;2.10;99.90;;;;;;4788251;29;20055;-67
2023/04/02 05:42:29;;;;;;;9.40;2.10;;;2.10;99.90;;;;;;4789598;30;20051;-66
2023/04/02 05:45:15;;;;;;;14.27;2.40;;;2.10;99.90;;;;;;4788591;30;20483;-67
2023/04/02 05:47:43;;;;;;;9.50;2.10;;;2.10;99.90;;;;;;4788505;30;20059;-67
2023/04/02 05:50:08;;;;;;;5.05;1.92;;;2.10;99.90;;;;;;4789597;30;20085;-66
2023/04/02 05:52:52;;;;;;;6.07;2.23;;;2.10;99.90;;;;;;4772785;30;20055;-66
2023/04/02 05:55:18;;;;;;;6.60;1.73;;;2.20;99.90;;;;;;4788758;30;20070;-66
2023/04/02 05:57:50;;;;;;;5.70;2.10;;;2.30;99.90;;;;;;4772824;30;20140;-67
2023/04/02 06:01:03;;;;;;;7.15;1.95;;;2.20;99.90;;;;;;4788732;30;20281;-66
2023/04/02 06:03:28;;;;;;;6.70;1.70;;;2.30;99.90;;;;;;4733647;30;20154;-66
2023/04/02 06:06:00;;;;;;;7.07;2.00;;;2.30;99.90;;;;;;4772545;30;20536;-67
2023/04/02 06:08:34;;;;;;;4.57;1.58;;;2.30;99.90;;;;;;4788888;30;20059;-66
2023/04/02 06:11:19;;;;;;;10.23;1.92;;;2.40;99.90;;;;;;4789325;30;20055;-66
2023/04/02 06:13:45;;;;;;;8.50;1.95;;;2.50;99.90;;;;;;4789080;30;20128;-66
2023/04/02 06:16:15;;;;;;;4.70;1.50;;;2.60;99.90;;;;;;4788462;30;20083;-66
2023/04/02 06:18:42;;;;;;;5.78;1.80;;;2.90;99.90;;;;;;4788490;30;20059;-67
2023/04/02 06:21:13;;;;;;;7.10;1.88;;;3.40;99.90;;;;;;4788968;30;20043;-66
2023/04/02 06:23:47;;;;;;;6.90;1.40;;;4.20;99.90;;;;;;4788972;30;20108;-66
2023/04/02 06:26:37;;;;;;;5.68;1.52;;;4.90;99.90;;;;;;4788526;30;20078;-67
2023/04/02 06:29:38;;;;;;;8.70;2.53;;;5.30;99.90;;;;;;4788384;29;20066;-67
2023/04/02 06:32:07;;;;;;;8.48;2.63;;;5.40;99.90;;;;;;4789113;30;20058;-66
2023/04/02 06:34:36;;;;;;;8.77;1.80;;;5.00;99.90;;;;;;4788335;30;20055;-66
2023/04/02 06:37:20;;;;;;;4.13;1.65;;;4.60;99.90;;;;;;4788254;30;20462;-67
2023/04/02 06:39:45;;;;;;;8.50;1.63;;;4.30;99.90;;;;;;4772871;30;20055;-67
2023/04/02 06:42:29;;;;;;;8.10;2.10;;;4.80;99.90;;;;;;4788269;30;20378;-66
2023/04/02 06:44:55;;;;;;;7.07;1.27;;;5.80;99.90;;;;;;4788522;30;20454;-66
2023/04/02 06:47:21;;;;;;;9.20;1.70;;;6.70;99.90;;;;;;4788625;30;20059;-67
2023/04/02 06:49:54;;;;;;;5.20;1.63;;;7.40;99.90;;;;;;4788655;29;20107;-67
2023/04/02 06:52:49;;;;;;;7.38;1.75;;;7.80;99.90;;;;;;4792533;30;20066;-67
2023/04/02 06:55:44;;;;;;;9.48;1.80;;;8.30;99.90;;;;;;4776152;30;20067;-67
2023/04/02 06:58:09;;;;;;;5.37;1.70;;;8.50;99.90;;;;;;4792307;30;20059;-67
2023/04/02 07:00:39;;;;;;;5.73;1.90;;;8.30;99.90;;;;;;4791626;29;20345;-67
2023/04/02 07:03:19;;;;;;;5.90;2.53;;;8.20;99.90;;;;;;4791600;30;20480;-67
2023/04/02 07:05:46;;;;;;;7.83;1.70;;;8.70;99.90;;;;;;4761753;30;20293;-70
2023/04/02 07:08:11;;;;;;;5.33;2.00;;;9.20;99.90;;;;;;4792087;30;20289;-66
2023/04/02 07:10:37;;;;;;;4.37;1.47;;;9.20;99.90;;;;;;4792032;30;20611;-66
2023/04/02 07:13:04;;;;;;;9.53;1.80;;;8.60;99.90;;;;;;4791171;30;20134;-67
2023/04/02 07:15:30;;;;;;;6.87;2.13;;;8.40;99.90;;;;;;4791929;29;20087;-66
2023/04/02 07:17:58;;;;;;;5.90;1.67;;;8.60;99.90;;;;;;4791422;30;20317;-66
2023/04/02 07:20:37;;;;;;;4.53;1.50;;;8.30;99.90;;;;;;4791314;29;20918;-66
2023/04/02 07:23:03;;;;;;;5.23;1.33;;;7.80;99.90;;;;;;4791605;30;20634;-66
2023/04/02 07:25:29;;;;;;;8.40;2.10;;;7.80;99.90;;;;;;4791322;30;20293;-66
2023/04/02 07:27:56;;;;;;;6.10;1.80;;;8.10;99.90;;;;;;4792603;30;20058;-67
2023/04/02 07:30:21;;;;;;;8.20;1.83;;;8.60;99.90;;;;;;4791128;30;20297;-66
2023/04/02 07:32:47;;;;;;;8.07;1.50;;;8.40;99.90;;;;;;4791033;30;20293;-66
2023/04/02 07:35:14;;;;;;;6.60;1.53;;;7.90;99.90;;;;;;4791010;30;20055;-66
2023/04/02 07:37:40;;;;;;;7.30;1.40;;;7.50;99.90;;;;;;4790951;30;20692;-66
2023/04/02 07:40:14;;;;;;;5.50;1.33;;;7.20;99.90;;;;;;4790972;30;20292;-66
2023/04/02 07:42:40;;;;;;;4.00;1.35;;;7.10;99.90;;;;;;4791024;30;20353;-66
2023/04/02 07:45:06;;;;;;;4.00;1.20;;;7.10;99.90;;;;;;4790652;30;20055;-66
2023/04/02 07:47:32;;;;;;;4.93;1.93;;;7.20;99.90;;;;;;4790387;30;20059;-66
2023/04/02 07:49:57;;;;;;;5.50;1.40;;;7.60;99.90;;;;;;4790458;30;20657;-66
2023/04/02 07:52:23;;;;;;;6.57;1.60;;;7.80;99.90;;;;;;4791346;29;20051;-66
2023/04/02 07:54:49;;;;;;;5.17;2.00;;;7.60;99.90;;;;;;4791031;29;20429;-66
2023/04/02 07:57:14;;;;;;;7.43;1.80;;;7.50;99.90;;;;;;4790679;30;20408;-66
2023/04/02 07:59:40;;;;;;;6.60;2.00;;;7.40;99.90;;;;;;4790460;29;20196;-66
2023/04/02 08:02:13;;;;;;;3.53;1.50;;;7.30;99.90;;;;;;4789672;29;20054;-66
2023/04/02 08:04:38;;;;;;;5.07;1.53;;;7.00;99.90;;;;;;4791355;30;20123;-66
2023/04/02 08:07:04;;;;;;;5.27;1.47;;;6.90;99.90;;;;;;4790486;30;20817;-66
2023/04/02 08:09:30;;;;;;;4.43;1.23;;;6.70;99.90;;;;;;4790474;29;20051;-65
2023/04/02 08:11:55;;;;;;;7.47;1.40;;;6.80;99.90;;;;;;4790474;29;20054;-66
2023/04/02 08:14:21;;;;;;;4.43;1.50;;;6.90;99.90;;;;;;4790387;30;20082;-65
2023/04/02 08:16:50;;;;;;;5.87;1.47;;;7.00;99.90;;;;;;4790749;30;20048;-65
2023/04/02 08:19:16;;;;;;;5.23;1.53;;;7.10;99.90;;;;;;4790300;29;20408;-66
2023/04/02 08:21:42;;;;;;;7.17;1.50;;;7.00;99.90;;;;;;4790342;30;20346;-65
2023/04/02 08:24:08;;;;;;;3.27;1.17;;;7.00;99.90;;;;;;4790255;30;20738;-66
2023/04/02 08:26:33;;;;;;;4.80;1.13;;;6.60;99.90;;;;;;4790800;30;20047;-65
2023/04/02 08:28:59;;;;;;;5.13;1.23;;;6.50;99.90;;;;;;4790240;30;20059;-66
2023/04/02 08:31:25;;;;;;;7.40;1.67;;;6.50;99.90;;;;;;4790684;30;20469;-67
2023/04/02 08:33:52;;;;;;;4.20;1.40;;;6.40;99.90;;;;;;4791202;30;20130;-63
2023/04/02 08:36:23;;;;;;;5.57;1.50;;;6.20;99.90;;;;;;4759637;30;20515;-65
2023/04/02 08:38:50;;;;;;;4.80;1.50;;;6.00;99.90;;;;;;4790765;30;20330;-65
2023/04/02 08:41:31;;;;;;;5.03;1.73;;;5.90;99.90;;;;;;4790015;30;20299;-65
2023/04/02 08:44:19;;;;;;;9.15;3.17;;;5.90;99.90;;;;;;4790800;30;20051;-65
2023/04/02 08:46:48;;;;;;;;;;;5.90;99.90;;;;;;4790269;30;20071;-64
2023/04/02 08:49:18;;;;;;;6.18;1.40;;;6.00;99.90;;;;;;4789736;30;19965;-65
2023/04/02 08:51:46;;;;;;;6.47;1.70;;;6.00;99.90;;;;;;4790330;30;20055;-65
2023/04/02 08:54:25;;;;;;;6.18;1.70;;;5.90;99.90;;;;;;4789801;29;20051;-65
2023/04/02 08:57:00;;;;;;;5.65;1.75;;;5.90;99.90;;;;;;4790429;30;20108;-65
2023/04/02 08:59:29;;;;;;;9.65;1.70;;;6.00;99.90;;;;;;4789838;30;20056;-65
2023/04/02 09:01:55;;;;;;;7.85;2.47;;;6.00;99.90;;;;;;4773580;30;20082;-65
2023/04/02 09:04:23;;;;;;;6.10;1.87;;;5.90;99.90;;;;;;4773510;30;20051;-66
2023/04/02 09:06:52;;;;;;;5.60;1.65;;;6.00;99.90;;;;;;4789508;29;20043;-65
2023/04/02 09:09:18;;;;;;;6.03;1.50;;;6.10;99.90;;;;;;4789507;30;20096;-65
2023/04/02 09:11:55;;;;;;;5.00;1.35;;;6.10;99.90;;;;;;4773323;30;20472;-66
2023/04/02 09:14:34;;;;;;;6.40;1.92;;;6.10;99.90;;;;;;4789143;29;20051;-65
2023/04/02 09:17:05;;;;;;;5.90;1.80;;;6.10;99.90;;;;;;4789344;30;20522;-67
2023/04/02 09:19:36;;;;;;;3.92;1.15;;;6.20;99.90;;;;;;4789105;30;20785;-64
2023/04/02 09:22:31;;;;;;;4.05;1.35;;;6.30;99.90;;;;;;4789302;30;20505;-65
2023/04/02 09:24:59;;;;;;;4.97;1.73;;;6.30;99.90;;;;;;4789193;29;20503;-63
2023/04/02 09:27:30;;;;;;;5.70;1.48;;;6.20;99.90;;;;;;4789880;30;20047;-65
2023/04/02 09:30:30;;;;;;;7.05;1.83;;;6.30;99.90;;;;;;4789179;30;20058;-66
2023/04/02 09:33:01;;;;;;;4.40;1.23;;;6.40;99.90;;;;;;4789116;30;20119;-66
2023/04/02 09:35:31;;;;;;;5.55;1.65;;;6.40;99.90;;;;;;4789010;30;20047;-65
2023/04/02 09:38:09;;;;;;;6.82;1.35;;;6.50;99.90;;;;;;4789580;30;20059;-66
2023/04/02 09:40:52;;;;;;;8.27;2.15;;;6.60;99.90;;;;;;4788971;30;20106;-66
2023/04/02 09:43:21;;;;;;;9.13;1.63;;;6.70;99.90;;;;;;4788992;30;20400;-66
2023/04/02 09:45:58;;;;;;;5.75;1.40;;;6.70;99.90;;;;;;4788812;30;20142;-67
2023/04/02 09:48:47;;;;;;;5.70;1.67;;;6.70;99.90;;;;;;4788861;30;20100;-66
2023/04/02 09:51:20;;;;;;;5.93;1.50;;;6.80;99.90;;;;;;4778767;30;20297;-69
2023/04/02 09:54:01;;;;;;;5.10;1.48;;;6.80;99.90;;;;;;4789426;30;20297;-67
2023/04/02 09:56:27;;;;;;;3.88;1.27;;;6.80;99.90;;;;;;4788730;30;20492;-66
2023/04/02 09:59:11;;;;;;;6.90;1.87;;;6.90;99.90;;;;;;4788736;30;20058;-66
2023/04/02 10:01:52;;;;;;;4.20;1.53;;;7.00;99.90;;;;;;4788701;30;20837;-67
2023/04/02 10:04:43;;;;;;;6.03;1.30;;;7.00;99.90;;;;;;4788678;30;20318;-66
2023/04/02 10:07:31;;;;;;;4.10;1.30;;;7.00;99.90;;;;;;4788536;30;20773;-66
2023/04/02 10:10:00;;;;;;;7.27;1.57;;;7.20;99.90;;;;;;4788553;30;20291;-66
2023/04/02 10:12:28;;;;;;;6.63;1.17;;;7.10;99.90;;;;;;4788460;30;20302;-66
2023/04/02 10:14:56;;;;;;;3.97;1.13;;;7.10;99.90;;;;;;4788250;30;20838;-66
2023/04/02 10:17:30;;;;;;;4.03;1.40;;;7.20;99.90;;;;;;4788395;30;20058;-65
2023/04/02 10:20:10;;;;;;;4.80;1.37;;;7.10;99.90;;;;;;4788749;30;20295;-68
2023/04/02 10:22:36;;;;;;;6.05;1.40;;;7.20;99.90;;;;;;4788954;30;20288;-68
2023/04/02 10:25:12;;;;;;;4.60;1.63;;;7.20;99.90;;;;;;4787928;29;20066;-66
2023/04/02 10:27:40;;;;;;;4.40;1.52;;;7.30;99.90;;;;;;4788411;30;20281;-67
2023/04/02 10:30:14;;;;;;;5.93;1.73;;;7.40;99.90;;;;;;4788359;30;20112;-67
2023/04/02 10:33:16;;;;;;;4.37;1.33;;;7.40;99.90;;;;;;4772363;30;20297;-67
2023/04/02 10:36:01;;;;;;;6.05;1.45;;;7.40;99.90;;;;;;4788351;30;20311;-67
2023/04/02 10:38:30;;;;;;;5.30;1.08;;;7.50;99.90;;;;;;4773289;30;20087;-66
2023/04/02 10:40:59;;;;;;;6.57;1.50;;;7.50;99.90;;;;;;4788787;30;20447;-66
2023/04/02 10:43:46;;;;;;;6.50;1.63;;;7.50;99.90;;;;;;4788502;30;20329;-65
2023/04/02 10:47:00;;;;;;;6.77;1.20;;;7.50;99.90;;;;;;4788156;29;20376;-66
2023/04/02 10:49:31;;;;;;;5.27;1.40;;;7.60;99.90;;;;;;4756566;30;20297;-65
2023/04/02 10:52:39;;;;;;;2.00;0.87;;;7.60;99.90;;;;;;4788159;30;20438;-65
2023/04/02 10:55:20;;;;;;;4.67;1.37;;;7.60;99.90;;;;;;4715202;30;20387;-66
2023/04/02 10:57:46;;;;;;;6.67;1.47;;;7.70;99.90;;;;;;4780409;30;20366;-66
2023/04/02 11:00:14;;;;;;;3.90;1.20;;;7.80;99.90;;;;;;4788638;30;20363;-66
2023/04/02 11:03:17;;;;;;;4.20;1.23;;;7.80;99.90;;;;;;4787468;30;20292;-70
2023/04/02 11:05:49;;;;;;;2.67;1.00;;;7.90;99.90;;;;;;4787647;30;20285;-66
2023/04/02 11:08:24;;;;;;;5.53;1.10;;;7.90;99.90;;;;;;4787691;30;20293;-67
2023/04/02 11:11:06;;;;;;;4.35;1.10;;;7.90;99.90;;;;;;4788645;30;20304;-70
2023/04/02 11:13:32;;;;;;;3.73;1.10;;;7.90;99.90;;;;;;4787092;30;20059;-66
2023/04/02 11:15:58;;;;;;;3.00;1.17;;;7.90;99.90;;;;;;4787264;29;20362;-67
2023/04/02 11:18:28;;;;;;;5.30;1.50;;;7.90;99.90;;;;;;4787861;30;20055;-66
2023/04/02 11:20:57;;;;;;;3.13;0.97;;;8.00;99.90;;;;;;4787895;30;20055;-66
2023/04/02 11:23:27;;;;;;;2.10;0.90;;;8.10;99.90;;;;;;4787885;30;20380;-64
2023/04/02 11:26:31;;;;;;;3.20;0.93;;;8.10;99.90;;;;;;4772354;30;20285;-64
2023/04/02 11:29:11;;;;;;;4.07;1.40;;;8.20;99.90;;;;;;4787878;29;20297;-64
2023/04/02 11:31:37;;;;;;;3.60;1.20;;;8.20;99.90;;;;;;4788328;30;20295;-67
2023/04/02 11:34:02;;;;;;;3.73;1.20;;;8.10;99.90;;;;;;4786407;30;20297;-65
2023/04/02 11:36:51;;;;;;;3.60;0.87;;;8.10;99.90;;;;;;4788787;29;20054;-68
2023/04/02 11:39:57;;;;;;;4.07;1.10;;;8.20;99.90;;;;;;4790996;29;20098;-67
2023/04/02 11:42:33;;;;;;;2.27;1.00;;;8.30;99.90;;;;;;4791308;30;20384;-67
2023/04/02 11:45:21;;;;;;;3.43;1.50;;;8.30;99.90;;;;;;4790925;30;20301;-66
2023/04/02 11:48:07;;;;;;;4.50;1.03;;;8.40;99.90;;;;;;4790776;30;20297;-66
2023/04/02 11:50:34;;;;;;;4.50;1.27;;;8.40;99.90;;;;;;4791634;30;20316;-67
2023/04/02 11:53:40;;;;;;;2.90;0.90;;;8.40;99.90;;;;;;4790758;30;20059;-66
2023/04/02 11:56:33;;;;;;;2.63;0.98;;;8.40;99.90;;;;;;4782735;30;20321;-66
2023/04/02 11:59:20;;;;;;;4.17;0.90;;;8.50;99.90;;;;;;4774718;30;20066;-67
2023/04/02 12:01:58;;;;;;;4.37;1.03;;;8.50;99.90;;;;;;4760112;30;20346;-66
2023/04/02 12:04:37;;;;;;;5.20;0.90;;;8.60;99.90;;;;;;4791018;30;20295;-67
2023/04/02 12:07:20;;;;;;;4.20;1.00;;;8.70;99.90;;;;;;4790878;30;20293;-67
2023/04/02 12:09:51;;;;;;;6.47;1.37;;;8.80;99.90;;;;;;4791340;30;20338;-66
2023/04/02 12:12:27;;;;;;;4.10;1.63;;;8.70;99.90;;;;;;4790463;30;20766;-68
2023/04/02 12:14:58;;;;;;;3.03;1.20;;;8.70;99.90;;;;;;4790183;30;20778;-66
2023/04/02 12:17:34;;;;;;;4.53;1.20;;;8.70;99.90;;;;;;4775173;30;20500;-66
2023/04/02 12:20:01;;;;;;;4.17;1.20;;;8.70;99.90;;;;;;4790628;30;20293;-68
2023/04/02 12:22:30;;;;;;;4.07;1.00;;;8.70;99.90;;;;;;4790978;30;20295;-69
2023/04/02 12:25:06;;;;;;;5.20;1.90;;;8.70;99.90;;;;;;4790290;30;20289;-66
2023/04/02 12:27:36;;;;;;;5.63;1.17;;;8.70;99.90;;;;;;4790243;30;20362;-69
2023/04/02 12:30:21;;;;;;;5.50;1.70;;;8.70;99.90;;;;;;4790839;30;20333;-66
2023/04/02 12:32:48;;;;;;;3.53;1.00;;;8.80;99.90;;;;;;4790174;30;20321;-65
2023/04/02 12:35:31;;;;;;;4.37;1.10;;;8.70;99.90;;;;;;4789843;30;20774;-66
2023/04/02 12:37:56;;;;;;;3.17;1.00;;;8.70;99.90;;;;;;4774107;30;20288;-65
2023/04/02 12:40:23;;;;;;;5.17;1.27;;;8.70;99.90;;;;;;4790448;30;20293;-66
2023/04/02 12:42:48;;;;;;;5.40;1.10;;;8.80;99.90;;;;;;4790010;30;20087;-66
2023/04/02 12:45:26;;;;;;;5.17;0.83;;;8.80;99.90;;;;;;4790405;30;20339;-66
2023/04/02 12:47:52;;;;;;;4.40;1.30;;;8.80;99.90;;;;;;4789451;29;20135;-66
2023/04/02 12:50:20;;;;;;;3.17;1.10;;;8.90;99.90;;;;;;4789772;29;20856;-67
2023/04/02 12:52:50;;;;;;;5.40;1.10;;;8.90;99.90;;;;;;4789792;30;20301;-67
2023/04/02 12:55:22;;;;;;;5.47;1.20;;;8.90;99.90;;;;;;4773946;30;20739;-66
2023/04/02 12:57:53;;;;;;;2.60;0.90;;;8.90;99.90;;;;;;4790455;30;20300;-67
2023/04/02 13:00:19;;;;;;;3.77;1.07;;;8.90;99.90;;;;;;4774894;30;20297;-67
2023/04/02 13:02:49;;;;;;;4.43;1.00;;;9.00;99.90;;;;;;4789686;30;20297;-67
2023/04/02 13:05:44;;;;;;;3.40;1.00;;;9.00;99.90;;;;;;4789559;29;20338;-66
2023/04/02 13:08:21;;;;;;;4.93;1.17;;;8.90;99.90;;;;;;4782811;30;20296;-67
2023/04/02 13:10:53;;;;;;;1.87;0.80;;;8.90;98.90;;;;;;4789828;30;20627;-67
2023/04/02 13:13:25;;;;;;;7.47;1.63;;;8.90;99.70;;;;;;4790092;30;20387;-67
2023/04/02 13:16:11;;;;;;;4.50;1.23;;;8.90;99.90;;;;;;4789638;30;20775;-67
2023/04/02 13:18:37;;;;;;;2.40;0.90;;;8.90;99.90;;;;;;4776764;30;20781;-68
2023/04/02 13:21:06;;;;;;;3.33;0.90;;;8.90;99.10;;;;;;4789288;30;20296;-68
2023/04/02 13:23:35;;;;;;;3.93;1.30;;;8.90;99.90;;;;;;4788906;29;20800;-68
2023/04/02 13:26:24;;;;;;;2.67;0.87;;;8.90;99.90;;;;;;4788972;30;20296;-68
2023/04/02 13:29:01;;;;;;;4.47;1.67;;;8.90;99.90;;;;;;4773657;30;20297;-68
2023/04/02 13:31:29;;;;;;;4.07;1.23;;;9.00;99.90;;;;;;4789360;30;20300;-69
2023/04/02 13:33:55;;;;;;;3.00;0.90;;;9.00;99.90;;;;;;4789086;30;20297;-68
2023/04/02 13:36:21;;;;;;;3.70;1.03;;;9.00;99.90;;;;;;4789029;30;20304;-68
2023/04/02 13:38:47;;;;;;;3.20;1.10;;;9.00;99.90;;;;;;4773796;30;20293;-68